PWSweather.com
Personal Weather Stations
Station Observations
KPAFREED2
New Sewickley Township, Pa, Freedom, PA 15042

New Sewickley Township, PaFreedom, PA 15042

Lat: 40.7080574, Lon: -80.21583557

Elevation: 1100

Station Type: Acurite Pro / Acu-Link

Latest ConditionsUpdated 2:37:45 AM EST Friday, Jan 19, 2018
Currently Today's Max Today's Min Today's Average
Temperature 21.3°F-5.9°C 22.7°F-5.2°C 21.3°F-5.9°C 22.2°F-5.4°C
Dew Point 11.4°F-11.4°C 12.6°F-10.8°C 11.3°F-11.5°C 12.0°F-11.1°C
Winds 4.0 mph SE6.4 kmh SE 9.0 mph SSE14.5 kmh SSE - 2.8 mph 4.5 kmh
Wind Gusts 5.0 mph8.0 kmh 9.0 mph14.5 kmh - -
Humidity 65% 65% 63% 64%
Pressure 29.25 in990.5 mb 29.26 in990.9 mb 29.23 in989.8 mb -
Hour Temp Dew Point Humidity Winds Wind Gusts Pressure Precip Precip Rate Daily Precip Total
02:37 AM 21.3°F-5.9°C 11.4°F-11.4°C 65% 2.0 mph SE3.2 kmh SE 5.0 mph8.0 kmh 29.25 in990.5 mb 0.00 in0.0 mm 0.00 in0.0 mm 0.00 in0.0 mm
02:36 AM 21.3°F-5.9°C 11.4°F-11.4°C 65% 1.0 mph SW1.6 kmh SW 5.0 mph8.0 kmh 29.25 in990.5 mb 0.00 in0.0 mm 0.00 in0.0 mm 0.00 in0.0 mm
02:35 AM 21.3°F-5.9°C 11.4°F-11.4°C 65% 3.0 mph WNW4.8 kmh WNW 5.0 mph8.0 kmh 29.25 in990.5 mb 0.00 in0.0 mm 0.00 in0.0 mm 0.00 in0.0 mm
02:34 AM 21.6°F-5.8°C 11.7°F-11.3°C 65% 1.0 mph SW1.6 kmh SW 5.0 mph8.0 kmh 29.25 in990.5 mb 0.00 in0.0 mm 0.00 in0.0 mm 0.00 in0.0 mm
02:33 AM 21.7°F-5.7°C 11.8°F-11.2°C 65% 1.0 mph WSW1.6 kmh WSW 5.0 mph8.0 kmh 29.25 in990.5 mb 0.00 in0.0 mm 0.00 in0.0 mm 0.00 in0.0 mm
02:32 AM 21.7°F-5.7°C 11.8°F-11.2°C 65% 1.0 mph S1.6 kmh S 5.0 mph8.0 kmh 29.25 in990.5 mb 0.00 in0.0 mm 0.00 in0.0 mm 0.00 in0.0 mm
02:31 AM 21.7°F-5.7°C 11.8°F-11.2°C 65% 3.0 mph SSE4.8 kmh SSE 5.0 mph8.0 kmh 29.25 in990.5 mb 0.00 in0.0 mm 0.00 in0.0 mm 0.00 in0.0 mm
02:30 AM 21.6°F-5.8°C 11.7°F-11.3°C 65% 4.0 mph SW6.4 kmh SW 5.0 mph8.0 kmh 29.25 in990.5 mb 0.00 in0.0 mm 0.00 in0.0 mm 0.00 in0.0 mm
02:29 AM 21.7°F-5.7°C 11.8°F-11.2°C 65% 3.0 mph SSW4.8 kmh SSW 5.0 mph8.0 kmh 29.24 in990.2 mb 0.00 in0.0 mm 0.00 in0.0 mm 0.00 in0.0 mm
02:28 AM 21.7°F-5.7°C 11.8°F-11.2°C 65% 5.0 mph 8.0 kmh 5.0 mph8.0 kmh 29.25 in990.5 mb 0.00 in0.0 mm 0.00 in0.0 mm 0.00 in0.0 mm
02:27 AM 21.7°F-5.7°C 11.8°F-11.2°C 65% 3.0 mph S4.8 kmh S 4.0 mph6.4 kmh 29.24 in990.2 mb 0.00 in0.0 mm 0.00 in0.0 mm 0.00 in0.0 mm
02:26 AM 21.7°F-5.7°C 11.8°F-11.2°C 65% 4.0 mph SW6.4 kmh SW 4.0 mph6.4 kmh 29.24 in990.2 mb 0.00 in0.0 mm 0.00 in0.0 mm 0.00 in0.0 mm
02:25 AM 21.7°F-5.7°C 11.8°F-11.2°C 65% 2.0 mph S3.2 kmh S 4.0 mph6.4 kmh 29.24 in990.2 mb 0.00 in0.0 mm 0.00 in0.0 mm 0.00 in0.0 mm
02:24 AM 21.7°F-5.7°C 11.8°F-11.2°C 65% 2.0 mph WSW3.2 kmh WSW 6.0 mph9.7 kmh 29.24 in990.2 mb 0.00 in0.0 mm 0.00 in0.0 mm 0.00 in0.0 mm
02:23 AM 21.7°F-5.7°C 11.8°F-11.2°C 65% 2.0 mph SSW3.2 kmh SSW 6.0 mph9.7 kmh 29.24 in990.2 mb 0.00 in0.0 mm 0.00 in0.0 mm 0.00 in0.0 mm
02:22 AM 21.7°F-5.7°C 11.8°F-11.2°C 65% 3.0 mph S4.8 kmh S 6.0 mph9.7 kmh 29.24 in990.2 mb 0.00 in0.0 mm 0.00 in0.0 mm 0.00 in0.0 mm
02:21 AM 21.7°F-5.7°C 11.8°F-11.2°C 65% 2.0 mph SSW3.2 kmh SSW 6.0 mph9.7 kmh 29.25 in990.5 mb 0.00 in0.0 mm 0.00 in0.0 mm 0.00 in0.0 mm
02:20 AM 21.7°F-5.7°C 11.8°F-11.2°C 65% 2.0 mph S3.2 kmh S 6.0 mph9.7 kmh 29.24 in990.2 mb 0.00 in0.0 mm 0.00 in0.0 mm 0.00 in0.0 mm
02:19 AM 21.7°F-5.7°C 11.8°F-11.2°C 65% 3.0 mph S4.8 kmh S 6.0 mph9.7 kmh 29.25 in990.5 mb 0.00 in0.0 mm 0.00 in0.0 mm 0.00 in0.0 mm
02:18 AM 21.9°F-5.6°C 11.3°F-11.5°C 63% 2.0 mph WSW3.2 kmh WSW 6.0 mph9.7 kmh 29.24 in990.2 mb 0.00 in0.0 mm 0.00 in0.0 mm 0.00 in0.0 mm
02:17 AM 21.9°F-5.6°C 11.3°F-11.5°C 63% 3.0 mph W4.8 kmh W 6.0 mph9.7 kmh 29.24 in990.2 mb 0.00 in0.0 mm 0.00 in0.0 mm 0.00 in0.0 mm
02:16 AM 21.9°F-5.6°C 11.3°F-11.5°C 63% 1.0 mph SSW1.6 kmh SSW 6.0 mph9.7 kmh 29.24 in990.2 mb 0.00 in0.0 mm 0.00 in0.0 mm 0.00 in0.0 mm
02:15 AM 21.9°F-5.6°C 11.3°F-11.5°C 63% 3.0 mph SSW4.8 kmh SSW 6.0 mph9.7 kmh 29.24 in990.2 mb 0.00 in0.0 mm 0.00 in0.0 mm 0.00 in0.0 mm
02:14 AM 21.9°F-5.6°C 11.3°F-11.5°C 63% 3.0 mph SW4.8 kmh SW 5.0 mph8.0 kmh 29.25 in990.5 mb 0.00 in0.0 mm 0.00 in0.0 mm 0.00 in0.0 mm
02:13 AM 21.9°F-5.6°C 11.3°F-11.5°C 63% 2.0 mph SW3.2 kmh SW 5.0 mph8.0 kmh 29.25 in990.5 mb 0.00 in0.0 mm 0.00 in0.0 mm 0.00 in0.0 mm
02:12 AM 21.9°F-5.6°C 11.3°F-11.5°C 63% 2.0 mph WSW3.2 kmh WSW 5.0 mph8.0 kmh 29.24 in990.2 mb 0.00 in0.0 mm 0.00 in0.0 mm 0.00 in0.0 mm
02:11 AM 21.9°F-5.6°C 11.3°F-11.5°C 63% 2.0 mph SSW3.2 kmh SSW 5.0 mph8.0 kmh 29.24 in990.2 mb 0.00 in0.0 mm 0.00 in0.0 mm 0.00 in0.0 mm
02:10 AM 21.9°F-5.6°C 12.0°F-11.1°C 65% 2.0 mph W3.2 kmh W 5.0 mph8.0 kmh 29.25 in990.5 mb 0.00 in0.0 mm 0.00 in0.0 mm 0.00 in0.0 mm
02:09 AM 21.9°F-5.6°C 12.0°F-11.1°C 65% 3.0 mph W4.8 kmh W 6.0 mph9.7 kmh 29.25 in990.5 mb 0.00 in0.0 mm 0.00 in0.0 mm 0.00 in0.0 mm
02:08 AM 21.7°F-5.7°C 11.8°F-11.2°C 65% 5.0 mph ESE8.0 kmh ESE 6.0 mph9.7 kmh 29.24 in990.2 mb 0.00 in0.0 mm 0.00 in0.0 mm 0.00 in0.0 mm
02:07 AM 21.7°F-5.7°C 11.8°F-11.2°C 65% 2.0 mph WSW3.2 kmh WSW 6.0 mph9.7 kmh 29.24 in990.2 mb 0.00 in0.0 mm 0.00 in0.0 mm 0.00 in0.0 mm
02:06 AM 21.7°F-5.7°C 11.8°F-11.2°C 65% 1.0 mph SW1.6 kmh SW 6.0 mph9.7 kmh 29.25 in990.5 mb 0.00 in0.0 mm 0.00 in0.0 mm 0.00 in0.0 mm
02:05 AM 21.7°F-5.7°C 11.8°F-11.2°C 65% 2.0 mph SSW3.2 kmh SSW 6.0 mph9.7 kmh 29.25 in990.5 mb 0.00 in0.0 mm 0.00 in0.0 mm 0.00 in0.0 mm
02:04 AM 21.7°F-5.7°C 11.8°F-11.2°C 65% 3.0 mph SW4.8 kmh SW 6.0 mph9.7 kmh 29.25 in990.5 mb 0.00 in0.0 mm 0.00 in0.0 mm 0.00 in0.0 mm
02:03 AM 21.9°F-5.6°C 12.0°F-11.1°C 65% 2.0 mph SW3.2 kmh SW 6.0 mph9.7 kmh 29.25 in990.5 mb 0.00 in0.0 mm 0.00 in0.0 mm 0.00 in0.0 mm
02:02 AM 21.9°F-5.6°C 12.0°F-11.1°C 65% 2.0 mph SSW3.2 kmh SSW 6.0 mph9.7 kmh 29.24 in990.2 mb 0.00 in0.0 mm 0.00 in0.0 mm 0.00 in0.0 mm
02:01 AM 21.9°F-5.6°C 12.0°F-11.1°C 65% 2.0 mph W3.2 kmh W 6.0 mph9.7 kmh 29.24 in990.2 mb 0.00 in0.0 mm 0.00 in0.0 mm 0.00 in0.0 mm
02:00 AM 21.9°F-5.6°C 12.0°F-11.1°C 65% 2.0 mph S3.2 kmh S 6.0 mph9.7 kmh 29.25 in990.5 mb 0.00 in0.0 mm 0.00 in0.0 mm 0.00 in0.0 mm
01:59 AM 21.7°F-5.7°C 11.8°F-11.2°C 65% 2.0 mph SW3.2 kmh SW 5.0 mph8.0 kmh 29.24 in990.2 mb 0.00 in0.0 mm 0.00 in0.0 mm 0.00 in0.0 mm
01:58 AM 21.7°F-5.7°C 11.8°F-11.2°C 65% 3.0 mph SSW4.8 kmh SSW 5.0 mph8.0 kmh 29.24 in990.2 mb 0.00 in0.0 mm 0.00 in0.0 mm 0.00 in0.0 mm
01:57 AM 21.7°F-5.7°C 11.8°F-11.2°C 65% 4.0 mph WSW6.4 kmh WSW 5.0 mph8.0 kmh 29.24 in990.2 mb 0.00 in0.0 mm 0.00 in0.0 mm 0.00 in0.0 mm
01:56 AM 21.7°F-5.7°C 11.8°F-11.2°C 65% 1.0 mph SW1.6 kmh SW 5.0 mph8.0 kmh 29.25 in990.5 mb 0.00 in0.0 mm 0.00 in0.0 mm 0.00 in0.0 mm
01:55 AM 21.9°F-5.6°C 12.0°F-11.1°C 65% 4.0 mph W6.4 kmh W 9.0 mph14.5 kmh 29.25 in990.5 mb 0.00 in0.0 mm 0.00 in0.0 mm 0.00 in0.0 mm
01:54 AM 21.9°F-5.6°C 12.0°F-11.1°C 65% 2.0 mph SSE3.2 kmh SSE 9.0 mph14.5 kmh 29.24 in990.2 mb 0.00 in0.0 mm 0.00 in0.0 mm 0.00 in0.0 mm
01:53 AM 21.9°F-5.6°C 12.0°F-11.1°C 65% 2.0 mph SW3.2 kmh SW 9.0 mph14.5 kmh 29.24 in990.2 mb 0.00 in0.0 mm 0.00 in0.0 mm 0.00 in0.0 mm
01:52 AM 21.9°F-5.6°C 12.0°F-11.1°C 65% 2.0 mph S3.2 kmh S 9.0 mph14.5 kmh 29.24 in990.2 mb 0.00 in0.0 mm 0.00 in0.0 mm 0.00 in0.0 mm
01:51 AM 21.9°F-5.6°C 12.0°F-11.1°C 65% 2.0 mph S3.2 kmh S 9.0 mph14.5 kmh 29.24 in990.2 mb 0.00 in0.0 mm 0.00 in0.0 mm 0.00 in0.0 mm
01:50 AM 21.9°F-5.6°C 12.0°F-11.1°C 65% 2.0 mph WSW3.2 kmh WSW 9.0 mph14.5 kmh 29.24 in990.2 mb 0.00 in0.0 mm 0.00 in0.0 mm 0.00 in0.0 mm
01:49 AM 21.9°F-5.6°C 12.0°F-11.1°C 65% 5.0 mph WSW8.0 kmh WSW 9.0 mph14.5 kmh 29.24 in990.2 mb 0.00 in0.0 mm 0.00 in0.0 mm 0.00 in0.0 mm
01:48 AM 21.9°F-5.6°C 11.3°F-11.5°C 63% 1.0 mph WSW1.6 kmh WSW 9.0 mph14.5 kmh 29.24 in990.2 mb 0.00 in0.0 mm 0.00 in0.0 mm 0.00 in0.0 mm
01:47 AM 22.1°F-5.5°C 11.5°F-11.4°C 63% 2.0 mph SW3.2 kmh SW 9.0 mph14.5 kmh 29.24 in990.2 mb 0.00 in0.0 mm 0.00 in0.0 mm 0.00 in0.0 mm
01:46 AM 22.1°F-5.5°C 11.5°F-11.4°C 63% 4.0 mph W6.4 kmh W 9.0 mph14.5 kmh 29.24 in990.2 mb 0.00 in0.0 mm 0.00 in0.0 mm 0.00 in0.0 mm
01:45 AM 21.9°F-5.6°C 12.0°F-11.1°C 65% 9.0 mph S14.5 kmh S 9.0 mph14.5 kmh 29.24 in990.2 mb 0.00 in0.0 mm 0.00 in0.0 mm 0.00 in0.0 mm
01:44 AM 21.7°F-5.7°C 11.8°F-11.2°C 65% 3.0 mph SW4.8 kmh SW 5.0 mph8.0 kmh 29.24 in990.2 mb 0.00 in0.0 mm 0.00 in0.0 mm 0.00 in0.0 mm
01:43 AM 21.7°F-5.7°C 11.8°F-11.2°C 65% 5.0 mph SW8.0 kmh SW 5.0 mph8.0 kmh 29.24 in990.2 mb 0.00 in0.0 mm 0.00 in0.0 mm 0.00 in0.0 mm
01:42 AM 21.7°F-5.7°C 11.8°F-11.2°C 65% 1.0 mph SW1.6 kmh SW 5.0 mph8.0 kmh 29.24 in990.2 mb 0.00 in0.0 mm 0.00 in0.0 mm 0.00 in0.0 mm
01:41 AM 21.7°F-5.7°C 11.8°F-11.2°C 65% 5.0 mph SSW8.0 kmh SSW 5.0 mph8.0 kmh 29.24 in990.2 mb 0.00 in0.0 mm 0.00 in0.0 mm 0.00 in0.0 mm
01:40 AM 21.9°F-5.6°C 12.0°F-11.1°C 65% 2.0 mph SSW3.2 kmh SSW 4.0 mph6.4 kmh 29.24 in990.2 mb 0.00 in0.0 mm 0.00 in0.0 mm 0.00 in0.0 mm
01:39 AM 21.9°F-5.6°C 12.0°F-11.1°C 65% 2.0 mph SSW3.2 kmh SSW 4.0 mph6.4 kmh 29.24 in990.2 mb 0.00 in0.0 mm 0.00 in0.0 mm 0.00 in0.0 mm
01:38 AM 21.9°F-5.6°C 12.0°F-11.1°C 65% 3.0 mph SW4.8 kmh SW 8.0 mph12.9 kmh 29.24 in990.2 mb 0.00 in0.0 mm 0.00 in0.0 mm 0.00 in0.0 mm
01:37 AM 21.9°F-5.6°C 12.0°F-11.1°C 65% 2.0 mph WSW3.2 kmh WSW 8.0 mph12.9 kmh 29.24 in990.2 mb 0.00 in0.0 mm 0.00 in0.0 mm 0.00 in0.0 mm
01:36 AM 21.9°F-5.6°C 12.0°F-11.1°C 65% 2.0 mph SW3.2 kmh SW 8.0 mph12.9 kmh 29.23 in989.8 mb 0.00 in0.0 mm 0.00 in0.0 mm 0.00 in0.0 mm
01:35 AM 22.1°F-5.5°C 12.2°F-11.0°C 65% 1.0 mph SW1.6 kmh SW 8.0 mph12.9 kmh 29.23 in989.8 mb 0.00 in0.0 mm 0.00 in0.0 mm 0.00 in0.0 mm
01:34 AM 22.1°F-5.5°C 12.2°F-11.0°C 65% 1.0 mph SSE1.6 kmh SSE 8.0 mph12.9 kmh 29.24 in990.2 mb 0.00 in0.0 mm 0.00 in0.0 mm 0.00 in0.0 mm
01:33 AM 22.1°F-5.5°C 11.5°F-11.4°C 63% 4.0 mph SSW6.4 kmh SSW 8.0 mph12.9 kmh 29.23 in989.8 mb 0.00 in0.0 mm 0.00 in0.0 mm 0.00 in0.0 mm
01:32 AM 22.3°F-5.4°C 11.7°F-11.3°C 63% 3.0 mph W4.8 kmh W 8.0 mph12.9 kmh 29.23 in989.8 mb 0.00 in0.0 mm 0.00 in0.0 mm 0.00 in0.0 mm
01:31 AM 22.3°F-5.4°C 11.7°F-11.3°C 63% 3.0 mph WSW4.8 kmh WSW 8.0 mph12.9 kmh 29.23 in989.8 mb 0.00 in0.0 mm 0.00 in0.0 mm 0.00 in0.0 mm
01:30 AM 22.3°F-5.4°C 11.7°F-11.3°C 63% 3.0 mph S4.8 kmh S 8.0 mph12.9 kmh 29.23 in989.8 mb 0.00 in0.0 mm 0.00 in0.0 mm 0.00 in0.0 mm
01:29 AM 22.3°F-5.4°C 11.7°F-11.3°C 63% 3.0 mph NNE4.8 kmh NNE 8.0 mph12.9 kmh 29.23 in989.8 mb 0.00 in0.0 mm 0.00 in0.0 mm 0.00 in0.0 mm
01:28 AM 22.3°F-5.4°C 12.4°F-10.9°C 65% 8.0 mph E12.9 kmh E 8.0 mph12.9 kmh 29.24 in990.2 mb 0.00 in0.0 mm 0.00 in0.0 mm 0.00 in0.0 mm
01:27 AM 22.3°F-5.4°C 12.4°F-10.9°C 65% 2.0 mph S3.2 kmh S 4.0 mph6.4 kmh 29.23 in989.8 mb 0.00 in0.0 mm 0.00 in0.0 mm 0.00 in0.0 mm
01:26 AM 22.3°F-5.4°C 12.4°F-10.9°C 65% 3.0 mph S4.8 kmh S 6.0 mph9.7 kmh 29.23 in989.8 mb 0.00 in0.0 mm 0.00 in0.0 mm 0.00 in0.0 mm
01:25 AM 22.3°F-5.4°C 11.7°F-11.3°C 63% 3.0 mph SW4.8 kmh SW 6.0 mph9.7 kmh 29.23 in989.8 mb 0.00 in0.0 mm 0.00 in0.0 mm 0.00 in0.0 mm
01:24 AM 22.3°F-5.4°C 11.7°F-11.3°C 63% 2.0 mph SW3.2 kmh SW 6.0 mph9.7 kmh 29.23 in989.8 mb 0.00 in0.0 mm 0.00 in0.0 mm 0.00 in0.0 mm
01:23 AM 22.3°F-5.4°C 11.7°F-11.3°C 63% 2.0 mph SSW3.2 kmh SSW 6.0 mph9.7 kmh 29.23 in989.8 mb 0.00 in0.0 mm 0.00 in0.0 mm 0.00 in0.0 mm
01:22 AM 22.3°F-5.4°C 11.7°F-11.3°C 63% 3.0 mph SSW4.8 kmh SSW 6.0 mph9.7 kmh 29.24 in990.2 mb 0.00 in0.0 mm 0.00 in0.0 mm 0.00 in0.0 mm
01:21 AM 22.3°F-5.4°C 11.7°F-11.3°C 63% 2.0 mph SW3.2 kmh SW 6.0 mph9.7 kmh 29.24 in990.2 mb 0.00 in0.0 mm 0.00 in0.0 mm 0.00 in0.0 mm
01:20 AM 22.3°F-5.4°C 11.7°F-11.3°C 63% 3.0 mph SW4.8 kmh SW 6.0 mph9.7 kmh 29.24 in990.2 mb 0.00 in0.0 mm 0.00 in0.0 mm 0.00 in0.0 mm
01:19 AM 22.5°F-5.3°C 11.8°F-11.2°C 63% 2.0 mph SSW3.2 kmh SSW 6.0 mph9.7 kmh 29.23 in989.8 mb 0.00 in0.0 mm 0.00 in0.0 mm 0.00 in0.0 mm
01:18 AM 22.5°F-5.3°C 11.8°F-11.2°C 63% 4.0 mph SSW6.4 kmh SSW 6.0 mph9.7 kmh 29.23 in989.8 mb 0.00 in0.0 mm 0.00 in0.0 mm 0.00 in0.0 mm
01:17 AM 22.5°F-5.3°C 11.8°F-11.2°C 63% 6.0 mph S9.7 kmh S 6.0 mph9.7 kmh 29.24 in990.2 mb 0.00 in0.0 mm 0.00 in0.0 mm 0.00 in0.0 mm
01:16 AM 22.5°F-5.3°C 11.8°F-11.2°C 63% 5.0 mph ESE8.0 kmh ESE 6.0 mph9.7 kmh 29.24 in990.2 mb 0.00 in0.0 mm 0.00 in0.0 mm 0.00 in0.0 mm
01:15 AM 22.3°F-5.4°C 12.4°F-10.9°C 65% 3.0 mph SSW4.8 kmh SSW 6.0 mph9.7 kmh 29.24 in990.2 mb 0.00 in0.0 mm 0.00 in0.0 mm 0.00 in0.0 mm
01:14 AM 22.3°F-5.4°C 12.4°F-10.9°C 65% 3.0 mph SSE4.8 kmh SSE 6.0 mph9.7 kmh 29.24 in990.2 mb 0.00 in0.0 mm 0.00 in0.0 mm 0.00 in0.0 mm
01:13 AM 22.5°F-5.3°C 12.6°F-10.8°C 65% 3.0 mph SW4.8 kmh SW 6.0 mph9.7 kmh 29.24 in990.2 mb 0.00 in0.0 mm 0.00 in0.0 mm 0.00 in0.0 mm
01:12 AM 22.5°F-5.3°C 12.6°F-10.8°C 65% 2.0 mph SW3.2 kmh SW 6.0 mph9.7 kmh 29.24 in990.2 mb 0.00 in0.0 mm 0.00 in0.0 mm 0.00 in0.0 mm
01:11 AM 22.5°F-5.3°C 12.6°F-10.8°C 65% 4.0 mph SSW6.4 kmh SSW 5.0 mph8.0 kmh 29.24 in990.2 mb 0.00 in0.0 mm 0.00 in0.0 mm 0.00 in0.0 mm
01:10 AM 22.5°F-5.3°C 12.6°F-10.8°C 65% 3.0 mph SSE4.8 kmh SSE 5.0 mph8.0 kmh 29.24 in990.2 mb 0.00 in0.0 mm 0.00 in0.0 mm 0.00 in0.0 mm
01:09 AM 22.5°F-5.3°C 12.6°F-10.8°C 65% 3.0 mph SSW4.8 kmh SSW 5.0 mph8.0 kmh 29.24 in990.2 mb 0.00 in0.0 mm 0.00 in0.0 mm 0.00 in0.0 mm
01:08 AM 22.3°F-5.4°C 12.4°F-10.9°C 65% 4.0 mph SSE6.4 kmh SSE 5.0 mph8.0 kmh 29.24 in990.2 mb 0.00 in0.0 mm 0.00 in0.0 mm 0.00 in0.0 mm
01:07 AM 22.3°F-5.4°C 12.4°F-10.9°C 65% 3.0 mph SE4.8 kmh SE 5.0 mph8.0 kmh 29.24 in990.2 mb 0.00 in0.0 mm 0.00 in0.0 mm 0.00 in0.0 mm
01:06 AM 22.3°F-5.4°C 12.4°F-10.9°C 65% 2.0 mph SW3.2 kmh SW 6.0 mph9.7 kmh 29.24 in990.2 mb 0.00 in0.0 mm 0.00 in0.0 mm 0.00 in0.0 mm
01:05 AM 22.3°F-5.4°C 12.4°F-10.9°C 65% 4.0 mph SW6.4 kmh SW 6.0 mph9.7 kmh 29.24 in990.2 mb 0.00 in0.0 mm 0.00 in0.0 mm 0.00 in0.0 mm
01:04 AM 22.3°F-5.4°C 12.4°F-10.9°C 65% 2.0 mph S3.2 kmh S 6.0 mph9.7 kmh 29.25 in990.5 mb 0.00 in0.0 mm 0.00 in0.0 mm 0.00 in0.0 mm
01:03 AM 22.3°F-5.4°C 12.4°F-10.9°C 65% 2.0 mph SSW3.2 kmh SSW 6.0 mph9.7 kmh 29.25 in990.5 mb 0.00 in0.0 mm 0.00 in0.0 mm 0.00 in0.0 mm
01:02 AM 22.5°F-5.3°C 12.6°F-10.8°C 65% 2.0 mph WSW3.2 kmh WSW 6.0 mph9.7 kmh 29.24 in990.2 mb 0.00 in0.0 mm 0.00 in0.0 mm 0.00 in0.0 mm
01:01 AM 22.5°F-5.3°C 12.6°F-10.8°C 65% 1.0 mph WNW1.6 kmh WNW 6.0 mph9.7 kmh 29.24 in990.2 mb 0.00 in0.0 mm 0.00 in0.0 mm 0.00 in0.0 mm
01:00 AM 22.5°F-5.3°C 11.8°F-11.2°C 63% 2.0 mph W3.2 kmh W 6.0 mph9.7 kmh 29.24 in990.2 mb 0.00 in0.0 mm 0.00 in0.0 mm 0.00 in0.0 mm
12:59 AM 22.5°F-5.3°C 11.8°F-11.2°C 63% 2.0 mph SSW3.2 kmh SSW 6.0 mph9.7 kmh 29.24 in990.2 mb 0.00 in0.0 mm 0.00 in0.0 mm 0.00 in0.0 mm
12:58 AM 22.5°F-5.3°C 11.8°F-11.2°C 63% 3.0 mph ESE4.8 kmh ESE 6.0 mph9.7 kmh 29.24 in990.2 mb 0.00 in0.0 mm 0.00 in0.0 mm 0.00 in0.0 mm
12:57 AM 22.3°F-5.4°C 12.4°F-10.9°C 65% 2.0 mph SSW3.2 kmh SSW 6.0 mph9.7 kmh 29.24 in990.2 mb 0.00 in0.0 mm 0.00 in0.0 mm 0.00 in0.0 mm
12:56 AM 22.5°F-5.3°C 12.6°F-10.8°C 65% 2.0 mph SW3.2 kmh SW 4.0 mph6.4 kmh 29.24 in990.2 mb 0.00 in0.0 mm 0.00 in0.0 mm 0.00 in0.0 mm
12:55 AM 22.5°F-5.3°C 12.6°F-10.8°C 65% 3.0 mph SW4.8 kmh SW 6.0 mph9.7 kmh 29.24 in990.2 mb 0.00 in0.0 mm 0.00 in0.0 mm 0.00 in0.0 mm
12:54 AM 22.5°F-5.3°C 12.6°F-10.8°C 65% 2.0 mph SSW3.2 kmh SSW 8.0 mph12.9 kmh 29.24 in990.2 mb 0.00 in0.0 mm 0.00 in0.0 mm 0.00 in0.0 mm
12:53 AM 22.3°F-5.4°C 12.4°F-10.9°C 65% 4.0 mph S6.4 kmh S 8.0 mph12.9 kmh 29.24 in990.2 mb 0.00 in0.0 mm 0.00 in0.0 mm 0.00 in0.0 mm
12:52 AM 22.3°F-5.4°C 12.4°F-10.9°C 65% 3.0 mph ESE4.8 kmh ESE 8.0 mph12.9 kmh 29.24 in990.2 mb 0.00 in0.0 mm 0.00 in0.0 mm 0.00 in0.0 mm
12:51 AM 22.3°F-5.4°C 12.4°F-10.9°C 65% 2.0 mph S3.2 kmh S 8.0 mph12.9 kmh 29.25 in990.5 mb 0.00 in0.0 mm 0.00 in0.0 mm 0.00 in0.0 mm
12:50 AM 22.5°F-5.3°C 12.6°F-10.8°C 65% 2.0 mph SE3.2 kmh SE 8.0 mph12.9 kmh 29.24 in990.2 mb 0.00 in0.0 mm 0.00 in0.0 mm 0.00 in0.0 mm
12:49 AM 22.5°F-5.3°C 12.6°F-10.8°C 65% 3.0 mph WSW4.8 kmh WSW 8.0 mph12.9 kmh 29.24 in990.2 mb 0.00 in0.0 mm 0.00 in0.0 mm 0.00 in0.0 mm
12:48 AM 22.5°F-5.3°C 12.6°F-10.8°C 65% 2.0 mph SW3.2 kmh SW 8.0 mph12.9 kmh 29.25 in990.5 mb 0.00 in0.0 mm 0.00 in0.0 mm 0.00 in0.0 mm
12:47 AM 22.5°F-5.3°C 12.6°F-10.8°C 65% 2.0 mph SSE3.2 kmh SSE 8.0 mph12.9 kmh 29.25 in990.5 mb 0.00 in0.0 mm 0.00 in0.0 mm 0.00 in0.0 mm
12:46 AM 22.5°F-5.3°C 11.8°F-11.2°C 63% 2.0 mph SW3.2 kmh SW 8.0 mph12.9 kmh 29.25 in990.5 mb 0.00 in0.0 mm 0.00 in0.0 mm 0.00 in0.0 mm
12:45 AM 22.5°F-5.3°C 11.8°F-11.2°C 63% 6.0 mph WSW9.7 kmh WSW 8.0 mph12.9 kmh 29.24 in990.2 mb 0.00 in0.0 mm 0.00 in0.0 mm 0.00 in0.0 mm
12:44 AM 22.5°F-5.3°C 11.8°F-11.2°C 63% 2.0 mph ESE3.2 kmh ESE 7.0 mph11.3 kmh 29.24 in990.2 mb 0.00 in0.0 mm 0.00 in0.0 mm 0.00 in0.0 mm
12:43 AM 22.5°F-5.3°C 11.8°F-11.2°C 63% 3.0 mph SSW4.8 kmh SSW 7.0 mph11.3 kmh 29.24 in990.2 mb 0.00 in0.0 mm 0.00 in0.0 mm 0.00 in0.0 mm
12:42 AM 22.5°F-5.3°C 11.8°F-11.2°C 63% 3.0 mph W4.8 kmh W 7.0 mph11.3 kmh 29.24 in990.2 mb 0.00 in0.0 mm 0.00 in0.0 mm 0.00 in0.0 mm
12:41 AM 22.5°F-5.3°C 11.8°F-11.2°C 63% 3.0 mph SW4.8 kmh SW 7.0 mph11.3 kmh 29.25 in990.5 mb 0.00 in0.0 mm 0.00 in0.0 mm 0.00 in0.0 mm
12:40 AM 22.5°F-5.3°C 11.8°F-11.2°C 63% 2.0 mph WSW3.2 kmh WSW 7.0 mph11.3 kmh 29.25 in990.5 mb 0.00 in0.0 mm 0.00 in0.0 mm 0.00 in0.0 mm
12:39 AM 22.5°F-5.3°C 12.6°F-10.8°C 65% 3.0 mph WSW4.8 kmh WSW 9.0 mph14.5 kmh 29.25 in990.5 mb 0.00 in0.0 mm 0.00 in0.0 mm 0.00 in0.0 mm
12:38 AM 22.3°F-5.4°C 12.4°F-10.9°C 65% 4.0 mph WSW6.4 kmh WSW 9.0 mph14.5 kmh 29.25 in990.5 mb 0.00 in0.0 mm 0.00 in0.0 mm 0.00 in0.0 mm
12:37 AM 22.3°F-5.4°C 12.4°F-10.9°C 65% 2.0 mph SSE3.2 kmh SSE 9.0 mph14.5 kmh 29.25 in990.5 mb 0.00 in0.0 mm 0.00 in0.0 mm 0.00 in0.0 mm
12:36 AM 22.3°F-5.4°C 12.4°F-10.9°C 65% 3.0 mph SW4.8 kmh SW 9.0 mph14.5 kmh 29.25 in990.5 mb 0.00 in0.0 mm 0.00 in0.0 mm 0.00 in0.0 mm
12:35 AM 22.3°F-5.4°C 12.4°F-10.9°C 65% 3.0 mph S4.8 kmh S 9.0 mph14.5 kmh 29.25 in990.5 mb 0.00 in0.0 mm 0.00 in0.0 mm 0.00 in0.0 mm
12:34 AM 22.3°F-5.4°C 12.4°F-10.9°C 65% 2.0 mph WSW3.2 kmh WSW 9.0 mph14.5 kmh 29.25 in990.5 mb 0.00 in0.0 mm 0.00 in0.0 mm 0.00 in0.0 mm
12:33 AM 22.5°F-5.3°C 12.6°F-10.8°C 65% 1.0 mph ESE1.6 kmh ESE 9.0 mph14.5 kmh 29.25 in990.5 mb 0.00 in0.0 mm 0.00 in0.0 mm 0.00 in0.0 mm
12:32 AM 22.5°F-5.3°C 11.8°F-11.2°C 63% 3.0 mph SW4.8 kmh SW 9.0 mph14.5 kmh 29.24 in990.2 mb 0.00 in0.0 mm 0.00 in0.0 mm 0.00 in0.0 mm
12:31 AM 22.5°F-5.3°C 11.8°F-11.2°C 63% 3.0 mph S4.8 kmh S 9.0 mph14.5 kmh 29.24 in990.2 mb 0.00 in0.0 mm 0.00 in0.0 mm 0.00 in0.0 mm
12:30 AM 22.5°F-5.3°C 12.6°F-10.8°C 65% 2.0 mph SW3.2 kmh SW 9.0 mph14.5 kmh 29.25 in990.5 mb 0.00 in0.0 mm 0.00 in0.0 mm 0.00 in0.0 mm
12:29 AM 22.5°F-5.3°C 12.6°F-10.8°C 65% 5.0 mph SSE8.0 kmh SSE 5.0 mph8.0 kmh 29.25 in990.5 mb 0.00 in0.0 mm 0.00 in0.0 mm 0.00 in0.0 mm
12:28 AM 22.5°F-5.3°C 12.6°F-10.8°C 65% 3.0 mph SSE4.8 kmh SSE 5.0 mph8.0 kmh 29.24 in990.2 mb 0.00 in0.0 mm 0.00 in0.0 mm 0.00 in0.0 mm
12:27 AM 22.5°F-5.3°C 12.6°F-10.8°C 65% 3.0 mph W4.8 kmh W 5.0 mph8.0 kmh 29.25 in990.5 mb 0.00 in0.0 mm 0.00 in0.0 mm 0.00 in0.0 mm
12:26 AM 22.5°F-5.3°C 12.6°F-10.8°C 65% 3.0 mph W4.8 kmh W 5.0 mph8.0 kmh 29.24 in990.2 mb 0.00 in0.0 mm 0.00 in0.0 mm 0.00 in0.0 mm
12:25 AM 22.5°F-5.3°C 12.6°F-10.8°C 65% 2.0 mph SW3.2 kmh SW 5.0 mph8.0 kmh 29.24 in990.2 mb 0.00 in0.0 mm 0.00 in0.0 mm 0.00 in0.0 mm
12:24 AM 22.5°F-5.3°C 12.6°F-10.8°C 65% 2.0 mph SSW3.2 kmh SSW 6.0 mph9.7 kmh 29.24 in990.2 mb 0.00 in0.0 mm 0.00 in0.0 mm 0.00 in0.0 mm
12:23 AM 22.5°F-5.3°C 12.6°F-10.8°C 65% 3.0 mph SSW4.8 kmh SSW 6.0 mph9.7 kmh 29.25 in990.5 mb 0.00 in0.0 mm 0.00 in0.0 mm 0.00 in0.0 mm
12:22 AM 22.5°F-5.3°C 12.6°F-10.8°C 65% 4.0 mph WSW6.4 kmh WSW 6.0 mph9.7 kmh 29.24 in990.2 mb 0.00 in0.0 mm 0.00 in0.0 mm 0.00 in0.0 mm
12:21 AM 22.5°F-5.3°C 12.6°F-10.8°C 65% 2.0 mph NNE3.2 kmh NNE 7.0 mph11.3 kmh 29.24 in990.2 mb 0.00 in0.0 mm 0.00 in0.0 mm 0.00 in0.0 mm
12:20 AM 22.5°F-5.3°C 12.6°F-10.8°C 65% 5.0 mph SSW8.0 kmh SSW 7.0 mph11.3 kmh 29.25 in990.5 mb 0.00 in0.0 mm 0.00 in0.0 mm 0.00 in0.0 mm
12:19 AM 22.5°F-5.3°C 12.6°F-10.8°C 65% 3.0 mph S4.8 kmh S 8.0 mph12.9 kmh 29.25 in990.5 mb 0.00 in0.0 mm 0.00 in0.0 mm 0.00 in0.0 mm
12:18 AM 22.5°F-5.3°C 12.6°F-10.8°C 65% 2.0 mph SW3.2 kmh SW 8.0 mph12.9 kmh 29.24 in990.2 mb 0.00 in0.0 mm 0.00 in0.0 mm 0.00 in0.0 mm
12:17 AM 22.5°F-5.3°C 11.8°F-11.2°C 63% 2.0 mph SW3.2 kmh SW 8.0 mph12.9 kmh 29.24 in990.2 mb 0.00 in0.0 mm 0.00 in0.0 mm 0.00 in0.0 mm
12:16 AM 22.5°F-5.3°C 11.8°F-11.2°C 63% 3.0 mph E4.8 kmh E 8.0 mph12.9 kmh 29.25 in990.5 mb 0.00 in0.0 mm 0.00 in0.0 mm 0.00 in0.0 mm
12:15 AM 22.5°F-5.3°C 11.8°F-11.2°C 63% 3.0 mph SSW4.8 kmh SSW 8.0 mph12.9 kmh 29.25 in990.5 mb 0.00 in0.0 mm 0.00 in0.0 mm 0.00 in0.0 mm
12:14 AM 22.5°F-5.3°C 11.8°F-11.2°C 63% 3.0 mph S4.8 kmh S 8.0 mph12.9 kmh 29.25 in990.5 mb 0.00 in0.0 mm 0.00 in0.0 mm 0.00 in0.0 mm
12:13 AM 22.7°F-5.2°C 12.0°F-11.1°C 63% 3.0 mph SW4.8 kmh SW 8.0 mph12.9 kmh 29.25 in990.5 mb 0.00 in0.0 mm 0.00 in0.0 mm 0.00 in0.0 mm
12:12 AM 22.7°F-5.2°C 12.0°F-11.1°C 63% 4.0 mph WSW6.4 kmh WSW 8.0 mph12.9 kmh 29.26 in990.9 mb 0.00 in0.0 mm 0.00 in0.0 mm 0.00 in0.0 mm
12:11 AM 22.5°F-5.3°C 11.8°F-11.2°C 63% 6.0 mph SW9.7 kmh SW 8.0 mph12.9 kmh 29.25 in990.5 mb 0.00 in0.0 mm 0.00 in0.0 mm 0.00 in0.0 mm
12:10 AM 22.5°F-5.3°C 12.6°F-10.8°C 65% 4.0 mph S6.4 kmh S 8.0 mph12.9 kmh 29.25 in990.5 mb 0.00 in0.0 mm 0.00 in0.0 mm 0.00 in0.0 mm
12:09 AM 22.5°F-5.3°C 12.6°F-10.8°C 65% 4.0 mph SW6.4 kmh SW 7.0 mph11.3 kmh 29.25 in990.5 mb 0.00 in0.0 mm 0.00 in0.0 mm 0.00 in0.0 mm
12:08 AM 22.3°F-5.4°C 12.4°F-10.9°C 65% 7.0 mph S11.3 kmh S 7.0 mph11.3 kmh 29.25 in990.5 mb 0.00 in0.0 mm 0.00 in0.0 mm 0.00 in0.0 mm
12:07 AM 22.3°F-5.4°C 12.4°F-10.9°C 65% 4.0 mph SW6.4 kmh SW 7.0 mph11.3 kmh 29.25 in990.5 mb 0.00 in0.0 mm 0.00 in0.0 mm 0.00 in0.0 mm
12:06 AM 22.3°F-5.4°C 12.4°F-10.9°C 65% 5.0 mph S8.0 kmh S 7.0 mph11.3 kmh 29.25 in990.5 mb 0.00 in0.0 mm 0.00 in0.0 mm 0.00 in0.0 mm
12:05 AM 22.3°F-5.4°C 12.4°F-10.9°C 65% 2.0 mph WSW3.2 kmh WSW 7.0 mph11.3 kmh 29.25 in990.5 mb 0.00 in0.0 mm 0.00 in0.0 mm 0.00 in0.0 mm
12:04 AM 22.3°F-5.4°C 12.4°F-10.9°C 65% 3.0 mph WSW4.8 kmh WSW 7.0 mph11.3 kmh 29.26 in990.9 mb 0.00 in0.0 mm 0.00 in0.0 mm 0.00 in0.0 mm
12:03 AM 22.3°F-5.4°C 12.4°F-10.9°C 65% 7.0 mph S11.3 kmh S 7.0 mph11.3 kmh 29.26 in990.9 mb 0.00 in0.0 mm 0.00 in0.0 mm 0.00 in0.0 mm
12:02 AM 22.3°F-5.4°C 12.4°F-10.9°C 65% 2.0 mph SW3.2 kmh SW 6.0 mph9.7 kmh 29.26 in990.9 mb 0.00 in0.0 mm 0.00 in0.0 mm 0.00 in0.0 mm
12:01 AM 22.3°F-5.4°C 12.4°F-10.9°C 65% 2.0 mph SW3.2 kmh SW 6.0 mph9.7 kmh 29.25 in990.5 mb 0.00 in0.0 mm 0.00 in0.0 mm 0.00 in0.0 mm
12:00 AM 22.3°F-5.4°C 12.4°F-10.9°C 65% 3.0 mph SW4.8 kmh SW 6.0 mph9.7 kmh 29.26 in990.9 mb 0.00 in0.0 mm 0.00 in0.0 mm 0.00 in0.0 mm